KFPR/FPR METAR and TAF weather

Enter ICAO airport designator
Station Type Date Time Source
KFPR METAR 2022/06/26 07:53 UTC NOAA

KFPR 260753Z AUTO 00000KT 9SM CLR 23/22 A2999 RMK AO2 SLP156 T02330222


Station Type Date Time Source
KFPR Decoded METAR 2022/06/26 07:53 UTC NOAA

FORT PIERCE ST LUCIE, FL, United States (KFPR) 27-30N 080-23W 13M
Jun 26, 2022 - 03:53 AM EDT / 2022.06.26 0753 UTC
Wind: Calm:0
Visibility: 9 mile(s):0
Sky conditions: clear
Temperature: 73.9 F (23.3 C)
Dew Point: 72.0 F (22.2 C)
Relative Humidity: 93%
Pressure (altimeter): 29.99 in. Hg (1015 hPa)
ob: KFPR 260753Z AUTO 00000KT 9SM CLR 23/22 A2999 RMK AO2 SLP156 T02330222
cycle: 8

Station Type Date Time Source
KFPR TAF 2022/06/26 06:22 UTC NOAA

TAF KFPR 260520Z 2606/2706 VRB04KT P6SM SCT030 SCT100 BKN200
FM261400 09008KT P6SM SCT030 SCT045 BKN200
FM261700 09012KT P6SM VCTS SCT035CB SCT050 BKN200
FM270100 08009KT P6SM SCT030 SCT080
AMD NOT SKED

Example: see airport list